Time;durP1;ratioP1;P1;durP2;ratioP2;P2;SDS_P1;SDS_P2;PMS_P1;PMS_P2;Temp;Humidity;BMP_temperature;BMP_pressure;BME280_temperature;BME280_humidity;BME280_pressure;Samples;Min_cycle;Max_cycle;Signal;HPM_P1;HPM_P2
2022/06/01 00:00:55;;;;;;;0.40;0.30;;;13.90;99.90;;;;;;5088333;28;21145;-86
2022/06/01 00:03:23;;;;;;;0.40;0.40;;;13.90;99.90;;;;;;5081876;28;21177;-86
2022/06/01 00:05:53;;;;;;;0.30;0.20;;;13.80;99.90;;;;;;5085535;28;20466;-87
2022/06/01 00:08:21;;;;;;;0.80;0.60;;;13.90;99.90;;;;;;5085024;28;20672;-88
2022/06/01 00:10:48;;;;;;;0.30;0.20;;;13.90;99.90;;;;;;5086366;28;20529;-87
2022/06/01 00:13:15;;;;;;;0.30;0.20;;;13.80;99.90;;;;;;5086669;28;20979;-87
2022/06/01 00:15:42;;;;;;;0.30;0.20;;;13.80;99.90;;;;;;5088589;28;20462;-87
2022/06/01 00:18:09;;;;;;;0.30;0.20;;;13.80;99.90;;;;;;5084888;28;20455;-87
2022/06/01 00:20:36;;;;;;;0.40;0.30;;;13.80;99.90;;;;;;5086586;28;20459;-87
2022/06/01 00:23:06;;;;;;;0.30;0.20;;;13.80;99.90;;;;;;5087592;28;20494;-87
2022/06/01 00:25:33;;;;;;;0.30;0.20;;;13.80;99.90;;;;;;5085337;28;20944;-84
2022/06/01 00:28:00;;;;;;;0.30;0.20;;;13.80;99.90;;;;;;5086094;28;20536;-86
2022/06/01 00:30:27;;;;;;;0.30;0.20;;;13.90;99.90;;;;;;5083726;28;20535;-86
2022/06/01 00:32:55;;;;;;;0.30;0.20;;;13.70;99.90;;;;;;5081587;28;20455;-88
2022/06/01 00:35:24;;;;;;;0.30;0.20;;;13.80;99.90;;;;;;5086759;28;20503;-86
2022/06/01 00:37:51;;;;;;;0.30;0.20;;;13.70;99.90;;;;;;5089839;28;20478;-86
2022/06/01 00:40:22;;;;;;;0.30;0.20;;;13.70;99.90;;;;;;5088324;28;20976;-87
2022/06/01 00:42:53;;;;;;;0.30;0.23;;;13.70;99.90;;;;;;5083864;28;20475;-87
2022/06/01 00:45:23;;;;;;;0.40;0.37;;;13.70;99.90;;;;;;5090344;28;20450;-87
2022/06/01 00:47:51;;;;;;;0.30;0.10;;;13.50;99.90;;;;;;5085274;28;21032;-89
2022/06/01 00:50:23;;;;;;;0.30;0.30;;;13.50;99.90;;;;;;5087128;28;20502;-87
2022/06/01 00:52:54;;;;;;;0.30;0.20;;;13.30;99.90;;;;;;5083431;28;20996;-88
2022/06/01 00:55:26;;;;;;;0.30;0.20;;;13.30;99.90;;;;;;5083964;28;20454;-87
2022/06/01 00:57:57;;;;;;;0.30;0.20;;;13.10;99.90;;;;;;5090395;28;20482;-87
2022/06/01 01:00:27;;;;;;;0.30;0.20;;;13.10;99.90;;;;;;5084385;28;20512;-87
2022/06/01 01:02:57;;;;;;;0.30;0.20;;;12.90;99.90;;;;;;5085656;28;20541;-91
2022/06/01 01:05:25;;;;;;;0.30;0.20;;;12.80;99.90;;;;;;5085533;28;20508;-86
2022/06/01 01:07:54;;;;;;;0.30;0.20;;;12.80;99.90;;;;;;5086950;28;21149;-89
2022/06/01 01:10:22;;;;;;;0.30;0.20;;;12.70;99.90;;;;;;5085973;28;21017;-89
2022/06/01 01:12:58;;;;;;;0.30;0.10;;;12.70;99.90;;;;;;5084881;28;21041;-87
2022/06/01 01:15:30;;;;;;;0.30;0.20;;;12.70;99.90;;;;;;5089527;28;20555;-88
2022/06/01 01:17:58;;;;;;;0.30;0.20;;;12.50;99.90;;;;;;5095052;28;20499;-87
2022/06/01 01:20:27;;;;;;;0.30;0.20;;;12.60;99.90;;;;;;5096986;28;20478;-89
2022/06/01 01:23:01;;;;;;;0.30;0.20;;;12.60;99.90;;;;;;5096132;28;20553;-86
2022/06/01 01:25:33;;;;;;;0.30;0.20;;;12.60;99.90;;;;;;5093185;28;20490;-86
2022/06/01 01:28:02;;;;;;;0.30;0.20;;;12.70;99.90;;;;;;5094952;28;21013;-86
2022/06/01 01:30:54;;;;;;;0.30;0.20;;;12.70;99.90;;;;;;5092953;28;20472;-86
2022/06/01 01:33:24;;;;;;;0.30;0.20;;;12.60;99.90;;;;;;5097608;28;20457;-85
2022/06/01 01:35:53;;;;;;;0.30;0.20;;;12.60;99.90;;;;;;5096089;28;20851;-84
2022/06/01 01:38:38;;;;;;;0.30;0.20;;;12.60;99.90;;;;;;5087843;28;20488;-87
2022/06/01 01:41:10;;;;;;;0.30;0.20;;;12.60;99.90;;;;;;5092212;28;20590;-87
2022/06/01 01:43:43;;;;;;;0.30;0.20;;;12.50;99.90;;;;;;5093683;28;20450;-86
2022/06/01 01:46:10;;;;;;;0.30;0.10;;;12.40;99.90;;;;;;5092773;28;20498;-87
2022/06/01 01:48:38;;;;;;;0.30;0.10;;;12.30;99.90;;;;;;5091493;28;20500;-87
2022/06/01 01:51:06;;;;;;;0.30;0.20;;;12.10;99.90;;;;;;5095760;28;20452;-87
2022/06/01 01:53:34;;;;;;;0.30;0.20;;;12.10;99.90;;;;;;5097092;28;20489;-87
2022/06/01 01:56:39;;;;;;;0.30;0.20;;;12.10;99.90;;;;;;5096601;28;20490;-88
2022/06/01 01:59:17;;;;;;;0.30;0.20;;;12.00;99.90;;;;;;5040780;28;20459;-87
2022/06/01 02:01:50;;;;;;;0.30;0.20;;;11.90;99.90;;;;;;5080103;28;20496;-87
2022/06/01 02:07:13;;;;;;;0.30;0.20;;;11.90;99.90;;;;;;5083014;28;20469;-87
2022/06/01 02:12:44;;;;;;;0.30;0.20;;;12.00;99.90;;;;;;5087522;28;20506;-88
2022/06/01 02:15:18;;;;;;;0.30;0.20;;;11.90;99.90;;;;;;5085674;28;20469;-89
2022/06/01 02:17:49;;;;;;;0.30;0.20;;;11.80;99.90;;;;;;5083953;28;20558;-87
2022/06/01 02:20:23;;;;;;;0.30;0.20;;;11.80;99.90;;;;;;5089679;28;20510;-89
2022/06/01 02:22:50;;;;;;;0.30;0.20;;;11.80;99.90;;;;;;5081748;28;20482;-87
2022/06/01 02:25:18;;;;;;;0.30;0.20;;;12.00;99.90;;;;;;5083259;28;20509;-88
2022/06/01 02:27:49;;;;;;;0.30;0.20;;;12.10;99.90;;;;;;5081768;28;20546;-87
2022/06/01 02:30:19;;;;;;;0.30;0.10;;;12.20;99.90;;;;;;5083245;28;20527;-88
2022/06/01 02:32:48;;;;;;;0.30;0.20;;;12.20;99.90;;;;;;5085980;28;20476;-88
2022/06/01 02:35:19;;;;;;;0.30;0.20;;;12.20;99.90;;;;;;5081618;28;20467;-88
2022/06/01 02:37:49;;;;;;;0.30;0.20;;;12.10;99.90;;;;;;5085405;28;20483;-88
2022/06/01 02:40:20;;;;;;;0.30;0.20;;;12.10;99.90;;;;;;5086228;28;21080;-88
2022/06/01 02:42:51;;;;;;;0.30;0.20;;;12.00;99.90;;;;;;5086346;28;20463;-88
2022/06/01 02:45:20;;;;;;;0.30;0.20;;;11.90;99.90;;;;;;5085374;28;20552;-87
2022/06/01 02:47:48;;;;;;;0.30;0.20;;;11.90;99.90;;;;;;5087286;28;20533;-87
2022/06/01 02:50:18;;;;;;;0.30;0.20;;;11.90;99.90;;;;;;5082715;28;20518;-88
2022/06/01 02:52:45;;;;;;;0.30;0.20;;;11.90;99.90;;;;;;5087723;28;20512;-91
2022/06/01 02:55:15;;;;;;;0.30;0.17;;;12.00;99.90;;;;;;5080722;28;20461;-90
2022/06/01 02:57:43;;;;;;;0.30;0.20;;;11.90;99.90;;;;;;5079651;28;20544;-87
2022/06/01 03:00:18;;;;;;;0.30;0.20;;;11.80;99.90;;;;;;5084824;28;20475;-86
2022/06/01 03:02:46;;;;;;;0.30;0.20;;;11.90;99.90;;;;;;5084631;28;21191;-89
2022/06/01 03:05:14;;;;;;;0.30;0.20;;;11.70;99.90;;;;;;5087247;28;20906;-87
2022/06/01 03:07:41;;;;;;;0.30;0.20;;;11.60;99.90;;;;;;5081020;28;20515;-88
2022/06/01 03:10:10;;;;;;;0.30;0.20;;;11.60;99.90;;;;;;5083716;28;20451;-87
2022/06/01 03:12:37;;;;;;;0.30;0.20;;;11.40;99.90;;;;;;5081161;28;20817;-87
2022/06/01 03:15:05;;;;;;;0.30;0.20;;;11.40;99.90;;;;;;5082281;28;21306;-87
2022/06/01 03:17:33;;;;;;;0.30;0.20;;;11.30;99.90;;;;;;5082362;28;20620;-87
2022/06/01 03:20:01;;;;;;;0.30;0.20;;;11.30;99.90;;;;;;5084151;28;20888;-86
2022/06/01 03:22:28;;;;;;;0.30;0.20;;;11.30;99.90;;;;;;5081098;28;20470;-87
2022/06/01 03:24:55;;;;;;;0.30;0.20;;;11.40;99.90;;;;;;5085045;28;20454;-90
2022/06/01 03:27:22;;;;;;;0.40;0.30;;;11.40;99.90;;;;;;5089814;28;20515;-88
2022/06/01 03:29:49;;;;;;;0.30;0.20;;;11.30;99.90;;;;;;5105644;28;20441;-86
2022/06/01 03:32:16;;;;;;;0.30;0.20;;;11.30;99.90;;;;;;5102416;28;20447;-86
2022/06/01 03:34:44;;;;;;;0.30;0.20;;;11.40;99.90;;;;;;5110745;28;20462;-87
2022/06/01 03:37:11;;;;;;;0.30;0.20;;;11.50;99.90;;;;;;5108816;28;20481;-85
2022/06/01 03:39:38;;;;;;;0.60;0.40;;;11.60;99.90;;;;;;5111798;27;20480;-86
2022/06/01 03:42:06;;;;;;;0.30;0.20;;;11.60;99.90;;;;;;5118094;28;20464;-87
2022/06/01 03:47:18;;;;;;;0.30;0.20;;;11.70;99.90;;;;;;5110961;28;20457;-88
2022/06/01 03:49:46;;;;;;;0.30;0.20;;;11.70;99.90;;;;;;5114126;28;20446;-87
2022/06/01 03:52:14;;;;;;;0.30;0.20;;;11.80;99.90;;;;;;5109957;28;20532;-90
2022/06/01 03:54:41;;;;;;;0.30;0.20;;;11.90;99.90;;;;;;5104717;28;20442;-87
2022/06/01 03:57:08;;;;;;;0.30;0.20;;;12.00;99.90;;;;;;5104711;28;20470;-88
2022/06/01 03:59:36;;;;;;;0.30;0.20;;;12.10;99.90;;;;;;5105591;28;20441;-86
2022/06/01 04:02:05;;;;;;;0.30;0.20;;;12.10;99.90;;;;;;5106103;28;20449;-87
2022/06/01 04:04:32;;;;;;;0.30;0.20;;;12.20;99.90;;;;;;5099887;28;20611;-87
2022/06/01 04:07:01;;;;;;;0.30;0.20;;;12.20;99.90;;;;;;5087203;28;20972;-90
2022/06/01 04:09:29;;;;;;;0.30;0.20;;;12.30;99.90;;;;;;5088026;28;20537;-88
2022/06/01 04:11:56;;;;;;;0.30;0.20;;;12.40;99.90;;;;;;5087793;28;20488;-88
2022/06/01 04:14:24;;;;;;;0.30;0.20;;;12.50;99.90;;;;;;5089607;28;20458;-88
2022/06/01 04:16:51;;;;;;;0.30;0.20;;;12.50;99.90;;;;;;5088127;28;20453;-87
2022/06/01 04:19:18;;;;;;;0.30;0.20;;;12.60;99.90;;;;;;5088880;28;20466;-87
2022/06/01 04:21:48;;;;;;;0.30;0.10;;;12.60;99.90;;;;;;5086954;28;20449;-88
2022/06/01 04:24:20;;;;;;;0.30;0.20;;;12.50;99.90;;;;;;5092272;28;20485;-88
2022/06/01 04:26:47;;;;;;;0.30;0.20;;;12.70;99.90;;;;;;5085037;28;20540;-88
2022/06/01 04:29:15;;;;;;;0.30;0.10;;;12.70;99.90;;;;;;5088856;28;20528;-87
2022/06/01 04:31:42;;;;;;;0.30;0.20;;;12.80;99.90;;;;;;5086055;28;20921;-88
2022/06/01 04:34:09;;;;;;;0.30;0.20;;;13.10;99.90;;;;;;5090554;28;20465;-89
2022/06/01 04:36:36;;;;;;;0.30;0.20;;;13.30;99.90;;;;;;5082512;28;20519;-88
2022/06/01 04:39:04;;;;;;;0.30;0.20;;;13.60;99.90;;;;;;5078766;28;21188;-90
2022/06/01 04:41:33;;;;;;;0.30;0.20;;;13.60;99.90;;;;;;5083944;28;20450;-90
2022/06/01 04:44:00;;;;;;;0.30;0.20;;;13.60;99.90;;;;;;5091965;28;20460;-88
2022/06/01 04:46:27;;;;;;;0.30;0.20;;;13.50;99.90;;;;;;5085519;28;20804;-88
2022/06/01 04:48:54;;;;;;;0.30;0.20;;;13.40;99.90;;;;;;5082657;28;20478;-88
2022/06/01 04:51:21;;;;;;;0.30;0.20;;;13.40;99.90;;;;;;5083155;28;20517;-88
2022/06/01 04:53:48;;;;;;;0.30;0.20;;;13.40;99.90;;;;;;5091465;28;21000;-88
2022/06/01 04:56:15;;;;;;;0.30;0.20;;;13.50;99.90;;;;;;5084874;28;20879;-87
2022/06/01 04:58:44;;;;;;;0.30;0.20;;;13.60;99.90;;;;;;5086209;28;21174;-88
2022/06/01 05:01:10;;;;;;;0.30;0.20;;;13.50;99.90;;;;;;5086107;28;20478;-86
2022/06/01 05:03:38;;;;;;;0.30;0.20;;;13.50;99.90;;;;;;5086550;28;20453;-86
2022/06/01 05:06:05;;;;;;;0.30;0.20;;;13.50;99.90;;;;;;5087726;28;20462;-89
2022/06/01 05:08:32;;;;;;;0.30;0.20;;;13.50;99.90;;;;;;5089877;28;20466;-87
2022/06/01 05:10:59;;;;;;;0.30;0.20;;;13.60;99.90;;;;;;5088786;28;20973;-86
2022/06/01 05:13:26;;;;;;;0.30;0.20;;;13.70;99.90;;;;;;5086985;28;20470;-85
2022/06/01 05:15:56;;;;;;;0.30;0.20;;;14.00;99.90;;;;;;5086153;28;21002;-87
2022/06/01 05:18:23;;;;;;;0.30;0.20;;;14.20;99.90;;;;;;5087793;28;20897;-87
2022/06/01 05:20:51;;;;;;;0.30;0.20;;;14.50;99.90;;;;;;5084837;28;20511;-87
2022/06/01 05:23:18;;;;;;;0.30;0.20;;;14.60;99.90;;;;;;5085053;28;20561;-86
2022/06/01 05:25:47;;;;;;;0.30;0.20;;;14.90;99.90;;;;;;5079594;28;20456;-86
2022/06/01 05:28:16;;;;;;;0.30;0.20;;;15.00;99.90;;;;;;5077745;28;21085;-86
2022/06/01 05:30:43;;;;;;;0.30;0.20;;;14.90;99.90;;;;;;5084028;28;21028;-88
2022/06/01 05:33:12;;;;;;;0.30;0.20;;;15.00;99.90;;;;;;5084627;28;20994;-84
2022/06/01 05:35:39;;;;;;;0.30;0.20;;;15.10;99.90;;;;;;5088596;28;20467;-83
2022/06/01 05:38:06;;;;;;;0.30;0.20;;;15.50;99.90;;;;;;5089483;28;20549;-84
2022/06/01 05:40:33;;;;;;;0.30;0.20;;;15.80;99.90;;;;;;5092054;28;20455;-84
2022/06/01 05:43:01;;;;;;;0.40;0.20;;;15.80;99.90;;;;;;5085931;28;20464;-85
2022/06/01 05:45:31;;;;;;;0.30;0.20;;;15.80;99.90;;;;;;5082242;28;20461;-85
2022/06/01 05:47:57;;;;;;;0.30;0.23;;;16.00;99.90;;;;;;5082538;28;20591;-86
2022/06/01 05:50:26;;;;;;;0.30;0.20;;;16.10;99.90;;;;;;5085886;28;20470;-85
2022/06/01 05:52:53;;;;;;;0.30;0.20;;;16.00;99.90;;;;;;5084791;28;20457;-85
2022/06/01 05:55:20;;;;;;;0.30;0.30;;;16.20;99.90;;;;;;5084331;28;20462;-88
2022/06/01 05:57:47;;;;;;;0.33;0.20;;;16.40;99.90;;;;;;5083308;28;20477;-85
2022/06/01 06:00:16;;;;;;;0.30;0.20;;;16.30;99.90;;;;;;5081745;28;20463;-86
2022/06/01 06:02:44;;;;;;;0.30;0.20;;;16.60;99.90;;;;;;5082004;28;20460;-87
2022/06/01 06:07:55;;;;;;;0.30;0.20;;;16.30;99.90;;;;;;5089196;28;21108;-87
2022/06/01 06:10:22;;;;;;;0.30;0.20;;;16.20;99.90;;;;;;5090024;28;21122;-86
2022/06/01 06:12:50;;;;;;;0.30;0.20;;;16.30;99.90;;;;;;5080782;28;20927;-87
2022/06/01 06:15:18;;;;;;;0.30;0.20;;;16.30;99.90;;;;;;5079207;28;20465;-88
2022/06/01 06:17:45;;;;;;;0.30;0.20;;;16.50;99.90;;;;;;5088957;28;20603;-87
2022/06/01 06:20:14;;;;;;;0.30;0.20;;;16.60;99.90;;;;;;5073026;28;21275;-87
2022/06/01 06:22:41;;;;;;;0.30;0.20;;;16.60;99.90;;;;;;5081538;28;20489;-86
2022/06/01 06:25:10;;;;;;;0.30;0.20;;;16.60;99.90;;;;;;5075248;28;20450;-88
2022/06/01 06:27:37;;;;;;;0.30;0.20;;;16.70;99.90;;;;;;5077696;28;20562;-87
2022/06/01 06:30:04;;;;;;;0.30;0.20;;;17.10;99.90;;;;;;5076144;28;20515;-87
2022/06/01 06:32:32;;;;;;;0.30;0.20;;;17.30;99.90;;;;;;5083501;28;20844;-86
2022/06/01 06:34:59;;;;;;;0.30;0.20;;;17.30;99.90;;;;;;5081861;28;20459;-87
2022/06/01 06:37:26;;;;;;;0.30;0.30;;;17.40;99.90;;;;;;5093661;28;20780;-85
2022/06/01 06:39:53;;;;;;;0.30;0.20;;;17.40;99.90;;;;;;5093769;28;20521;-86
2022/06/01 06:42:21;;;;;;;0.50;0.20;;;17.60;99.90;;;;;;5102983;28;20451;-89
2022/06/01 06:44:48;;;;;;;0.30;0.20;;;17.70;99.90;;;;;;5086149;28;20459;-88
2022/06/01 06:47:15;;;;;;;0.30;0.20;;;17.90;99.90;;;;;;5085560;28;20453;-86
2022/06/01 06:49:42;;;;;;;0.30;0.20;;;17.90;99.90;;;;;;5085227;28;20451;-87
2022/06/01 06:52:09;;;;;;;0.30;0.20;;;18.10;99.90;;;;;;5082407;28;20458;-89
2022/06/01 06:54:36;;;;;;;0.30;0.20;;;18.00;99.90;;;;;;5081959;28;20461;-86
2022/06/01 06:57:03;;;;;;;0.30;0.20;;;18.30;99.90;;;;;;5079102;28;20975;-86
2022/06/01 06:59:32;;;;;;;0.30;0.20;;;18.40;99.90;;;;;;5078349;28;20475;-88
2022/06/01 07:01:59;;;;;;;0.30;0.20;;;18.30;99.90;;;;;;5078406;28;21334;-88
2022/06/01 07:04:26;;;;;;;0.30;0.20;;;18.10;99.90;;;;;;5078490;28;20463;-85
2022/06/01 07:06:53;;;;;;;0.30;0.20;;;18.50;99.90;;;;;;5082869;28;20460;-86
2022/06/01 07:09:20;;;;;;;0.30;0.20;;;18.50;99.90;;;;;;5087745;28;20451;-86
2022/06/01 07:11:47;;;;;;;0.37;0.20;;;18.60;99.90;;;;;;5086332;28;20455;-86
2022/06/01 07:14:14;;;;;;;0.60;0.40;;;18.60;99.90;;;;;;5088714;28;20520;-86
2022/06/01 07:16:43;;;;;;;0.30;0.20;;;18.80;99.90;;;;;;5079956;28;20461;-86
2022/06/01 07:19:11;;;;;;;0.40;0.30;;;18.90;99.90;;;;;;5086351;28;20474;-90
2022/06/01 07:21:38;;;;;;;0.30;0.20;;;19.00;99.90;;;;;;5087056;28;20542;-88
2022/06/01 07:24:06;;;;;;;0.30;0.20;;;19.00;99.90;;;;;;5087454;28;20491;-87
2022/06/01 07:26:35;;;;;;;0.40;0.20;;;19.00;99.90;;;;;;5087301;28;20957;-89
2022/06/01 07:29:03;;;;;;;0.30;0.20;;;19.10;99.90;;;;;;5089142;28;20450;-85
2022/06/01 07:31:30;;;;;;;0.30;0.20;;;18.90;99.90;;;;;;5086135;28;20950;-86
2022/06/01 07:33:59;;;;;;;0.30;0.20;;;19.00;99.90;;;;;;5087169;28;20543;-86
2022/06/01 07:36:28;;;;;;;0.30;0.20;;;19.00;99.90;;;;;;5082799;28;20577;-88
2022/06/01 07:44:29;;;;;;;0.30;0.20;;;18.70;99.90;;;;;;5080475;28;20446;-87
2022/06/01 07:46:57;;;;;;;0.30;0.30;;;19.20;99.90;;;;;;5086383;28;20516;-87
2022/06/01 07:49:25;;;;;;;0.30;0.20;;;19.20;99.90;;;;;;5083624;28;20464;-86
2022/06/01 07:51:53;;;;;;;0.30;0.20;;;19.30;99.90;;;;;;5083469;28;21113;-87
2022/06/01 07:54:20;;;;;;;0.30;0.20;;;19.30;99.90;;;;;;5080803;28;20453;-89
2022/06/01 07:56:47;;;;;;;0.30;0.20;;;19.40;99.90;;;;;;5077098;28;20469;-89
2022/06/01 07:59:15;;;;;;;0.30;0.20;;;19.60;99.90;;;;;;5082170;28;20485;-87
2022/06/01 08:01:43;;;;;;;0.30;0.20;;;19.70;99.90;;;;;;5084407;28;20470;-86
2022/06/01 08:04:11;;;;;;;0.30;0.20;;;19.80;99.90;;;;;;5083345;28;20954;-87
2022/06/01 08:06:40;;;;;;;0.30;0.20;;;19.70;99.90;;;;;;5087051;28;20465;-87
2022/06/01 08:09:07;;;;;;;0.40;0.30;;;19.70;99.90;;;;;;5086021;28;20535;-87
2022/06/01 08:14:19;;;;;;;0.37;0.30;;;20.00;99.90;;;;;;5082124;28;20449;-90
2022/06/01 08:16:47;;;;;;;0.33;0.20;;;20.10;99.90;;;;;;5079973;28;20470;-88
2022/06/01 08:19:15;;;;;;;0.30;0.20;;;19.50;99.90;;;;;;5077968;28;20484;-86
2022/06/01 08:21:45;;;;;;;0.40;0.30;;;19.40;99.90;;;;;;5079421;28;20486;-86
2022/06/01 08:24:13;;;;;;;0.30;0.20;;;19.20;99.90;;;;;;5079596;28;20604;-87
2022/06/01 08:26:40;;;;;;;0.30;0.20;;;19.50;99.90;;;;;;5083948;28;20523;-87
2022/06/01 08:29:07;;;;;;;0.40;0.20;;;19.80;99.90;;;;;;5080182;28;20511;-87
2022/06/01 08:31:35;;;;;;;0.40;0.20;;;20.10;99.90;;;;;;5083535;28;21008;-87
2022/06/01 08:34:04;;;;;;;0.40;0.30;;;20.40;99.90;;;;;;5084962;28;20461;-87
2022/06/01 08:36:31;;;;;;;0.40;0.20;;;20.40;99.90;;;;;;5092235;28;20465;-86
2022/06/01 08:39:00;;;;;;;0.40;0.20;;;20.40;99.90;;;;;;5090151;28;20848;-85
2022/06/01 08:41:31;;;;;;;0.40;0.20;;;20.40;99.90;;;;;;5089475;28;20457;-86
2022/06/01 08:44:03;;;;;;;0.40;0.20;;;20.50;99.30;;;;;;5083596;28;20502;-89
2022/06/01 08:46:33;;;;;;;0.37;0.20;;;20.60;99.90;;;;;;5082298;28;20500;-86
2022/06/01 08:49:03;;;;;;;0.40;0.20;;;20.70;99.90;;;;;;5087951;28;20467;-85
2022/06/01 08:51:32;;;;;;;0.40;0.20;;;20.80;99.90;;;;;;5089940;28;20511;-88
2022/06/01 08:54:02;;;;;;;0.40;0.20;;;20.80;98.40;;;;;;5083759;28;20525;-87
2022/06/01 08:56:38;;;;;;;0.40;0.20;;;20.80;97.60;;;;;;5084804;28;20983;-87
2022/06/01 08:59:15;;;;;;;0.40;0.30;;;20.90;97.50;;;;;;5083612;28;20539;-88
2022/06/01 09:01:48;;;;;;;0.40;0.20;;;21.20;98.00;;;;;;5087026;28;20458;-87
2022/06/01 09:04:28;;;;;;;0.40;0.20;;;21.40;95.90;;;;;;5086070;28;20553;-88
2022/06/01 09:07:04;;;;;;;0.40;0.20;;;21.30;95.70;;;;;;5085648;28;20928;-88
2022/06/01 09:09:41;;;;;;;0.40;0.20;;;21.00;95.70;;;;;;5088860;28;20511;-87
2022/06/01 09:12:09;;;;;;;0.40;0.20;;;21.10;95.40;;;;;;5080134;28;20462;-87
2022/06/01 09:14:40;;;;;;;0.40;0.20;;;21.60;97.50;;;;;;5089919;28;20477;-87
2022/06/01 09:17:07;;;;;;;0.40;0.20;;;21.60;96.90;;;;;;5087863;28;21149;-87
2022/06/01 09:25:10;;;;;;;0.40;0.30;;;21.90;95.50;;;;;;5093041;28;20452;-86
2022/06/01 09:27:40;;;;;;;0.40;0.20;;;22.00;93.40;;;;;;5093181;28;20528;-86
2022/06/01 09:30:25;;;;;;;0.33;0.20;;;21.50;93.90;;;;;;5089518;28;20463;-88
2022/06/01 09:33:14;;;;;;;0.40;0.20;;;21.80;94.20;;;;;;5086471;28;20455;-87
2022/06/01 09:35:44;;;;;;;0.67;0.40;;;21.90;93.50;;;;;;5092084;28;20440;-87
2022/06/01 09:38:19;;;;;;;0.40;0.30;;;22.40;96.20;;;;;;5100865;28;20512;-88
2022/06/01 09:41:02;;;;;;;0.40;0.30;;;22.00;93.60;;;;;;5101881;28;20498;-89
2022/06/01 09:43:29;;;;;;;0.40;0.20;;;21.20;94.00;;;;;;5100557;28;20466;-89
2022/06/01 09:45:56;;;;;;;0.40;0.30;;;21.60;94.80;;;;;;5086170;28;21005;-89
2022/06/01 09:48:27;;;;;;;0.40;0.20;;;21.80;92.60;;;;;;5086556;28;20470;-88
2022/06/01 09:51:07;;;;;;;0.40;0.20;;;22.10;91.90;;;;;;5081892;28;20450;-87
2022/06/01 09:53:39;;;;;;;0.40;0.20;;;22.10;94.10;;;;;;5078762;28;20458;-88
2022/06/01 09:56:08;;;;;;;0.40;0.30;;;22.20;94.20;;;;;;5080874;28;20499;-90
2022/06/01 10:06:59;;;;;;;0.40;0.40;;;22.50;91.30;;;;;;5083246;28;20944;-86
2022/06/01 10:09:29;;;;;;;0.40;0.20;;;23.00;91.70;;;;;;5082171;28;20946;-86
2022/06/01 10:11:58;;;;;;;0.40;0.20;;;22.80;91.20;;;;;;5078317;28;20470;-84
2022/06/01 10:14:31;;;;;;;0.40;0.20;;;22.50;90.90;;;;;;5083128;28;20462;-89
2022/06/01 10:17:09;;;;;;;0.40;0.20;;;22.60;90.60;;;;;;5081596;28;21099;-86
2022/06/01 10:19:41;;;;;;;0.40;0.20;;;22.70;86.40;;;;;;5086768;28;20531;-87
2022/06/01 10:22:18;;;;;;;0.40;0.20;;;23.00;92.10;;;;;;5077984;28;20516;-87
2022/06/01 10:24:52;;;;;;;0.40;0.30;;;23.10;87.50;;;;;;5076132;28;21009;-88
2022/06/01 10:27:28;;;;;;;0.40;0.30;;;22.90;89.80;;;;;;5079685;28;20860;-87
2022/06/01 10:30:06;;;;;;;0.40;0.30;;;22.70;89.80;;;;;;5077660;28;21261;-88
2022/06/01 10:32:41;;;;;;;0.40;0.40;;;22.70;89.50;;;;;;5078586;28;20584;-87
2022/06/01 10:35:18;;;;;;;0.73;0.73;;;22.90;86.10;;;;;;5082242;28;20546;-88
2022/06/01 10:37:57;;;;;;;0.40;0.20;;;23.20;88.30;;;;;;5077090;28;20482;-87
2022/06/01 10:40:32;;;;;;;0.40;0.20;;;23.20;82.80;;;;;;5074868;28;20566;-88
2022/06/01 10:43:18;;;;;;;0.40;0.30;;;23.40;85.60;;;;;;5084461;28;20523;-88
2022/06/01 10:45:50;;;;;;;0.40;0.30;;;23.40;83.40;;;;;;5081300;28;20505;-88
2022/06/01 10:48:24;;;;;;;0.40;0.20;;;23.40;83.60;;;;;;5081084;28;20663;-87
2022/06/01 10:50:58;;;;;;;0.40;0.30;;;23.30;82.30;;;;;;5087479;28;20533;-87
2022/06/01 10:53:35;;;;;;;0.40;0.20;;;23.80;81.80;;;;;;5086871;28;20451;-87
2022/06/01 10:56:03;;;;;;;0.40;0.20;;;23.60;82.10;;;;;;5078470;28;20496;-88
2022/06/01 10:58:32;;;;;;;0.40;0.20;;;23.60;78.30;;;;;;5082397;28;20486;-90
2022/06/01 11:01:09;;;;;;;0.40;0.20;;;23.70;78.20;;;;;;5085773;28;20551;-87
2022/06/01 11:04:00;;;;;;;0.40;0.20;;;23.90;77.60;;;;;;5088456;28;20538;-88
2022/06/01 11:06:51;;;;;;;0.40;0.30;;;24.00;75.70;;;;;;5086461;28;20461;-90
2022/06/01 11:09:25;;;;;;;1.07;0.30;;;24.40;77.30;;;;;;5097281;28;20453;-90
2022/06/01 11:11:57;;;;;;;0.40;0.20;;;24.60;76.80;;;;;;5095625;28;20438;-88
2022/06/01 11:14:40;;;;;;;0.50;0.30;;;24.60;75.00;;;;;;5106271;28;20489;-88
2022/06/01 11:17:18;;;;;;;0.50;0.30;;;24.50;78.50;;;;;;5100870;28;20449;-87
2022/06/01 11:19:59;;;;;;;0.40;0.20;;;24.50;81.60;;;;;;5087493;28;20482;-87
2022/06/01 11:22:51;;;;;;;0.50;0.43;;;24.70;75.80;;;;;;5093334;28;20520;-88
2022/06/01 11:25:23;;;;;;;0.40;0.20;;;24.60;74.00;;;;;;5089073;28;20492;-90
2022/06/01 11:28:14;;;;;;;0.40;0.30;;;24.20;75.80;;;;;;5074301;28;20450;-87
2022/06/01 11:30:49;;;;;;;0.40;0.20;;;24.10;74.10;;;;;;5080770;28;20929;-90
2022/06/01 11:33:24;;;;;;;0.40;0.20;;;23.70;72.40;;;;;;5089169;28;20442;-89
2022/06/01 11:35:57;;;;;;;0.40;0.30;;;23.90;72.50;;;;;;5088269;28;20964;-88
2022/06/01 11:38:28;;;;;;;0.40;0.20;;;24.00;77.40;;;;;;5088358;28;20454;-90
2022/06/01 11:41:02;;;;;;;0.40;0.20;;;24.20;75.40;;;;;;5088458;28;20516;-89
2022/06/01 11:43:32;;;;;;;0.40;0.20;;;24.20;68.90;;;;;;5085136;28;20443;-87
2022/06/01 11:46:04;;;;;;;0.40;0.20;;;24.00;72.40;;;;;;5084446;28;20507;-87
2022/06/01 11:48:33;;;;;;;0.40;0.20;;;24.10;78.50;;;;;;5086571;28;20464;-87
2022/06/01 11:51:11;;;;;;;0.40;0.30;;;23.90;72.90;;;;;;5081484;28;20529;-88
2022/06/01 11:53:46;;;;;;;0.50;0.40;;;24.10;74.30;;;;;;5084847;28;20447;-89
2022/06/01 11:56:24;;;;;;;0.40;0.23;;;24.20;74.00;;;;;;5080604;28;20464;-91
2022/06/01 11:59:13;;;;;;;0.40;0.20;;;24.60;72.30;;;;;;5090895;28;20438;-88
2022/06/01 12:01:52;;;;;;;0.40;0.30;;;24.20;73.30;;;;;;5087340;28;20435;-89
2022/06/01 12:04:24;;;;;;;0.40;0.20;;;24.20;70.70;;;;;;5086569;28;20478;-91
2022/06/01 12:07:06;;;;;;;0.40;0.20;;;24.90;74.90;;;;;;5081583;28;20515;-87
2022/06/01 12:09:41;;;;;;;0.40;0.20;;;25.00;69.00;;;;;;5077741;28;20521;-88
2022/06/01 12:12:22;;;;;;;0.40;0.30;;;25.30;72.30;;;;;;5084491;28;20465;-90
2022/06/01 12:14:58;;;;;;;0.40;0.23;;;25.00;68.60;;;;;;5087790;28;20471;-88
2022/06/01 12:17:35;;;;;;;0.50;0.47;;;24.90;66.50;;;;;;5088269;28;20503;-87
2022/06/01 12:20:36;;;;;;;0.40;0.30;;;24.80;64.50;;;;;;5082393;28;20489;-88
2022/06/01 12:29:51;;;;;;;0.40;0.20;;;24.70;71.00;;;;;;5083216;28;20491;-87
2022/06/01 12:32:19;;;;;;;0.40;0.30;;;24.80;74.10;;;;;;5091202;28;20458;-88
2022/06/01 12:35:08;;;;;;;0.50;0.50;;;24.40;68.50;;;;;;5100248;28;20508;-88
2022/06/01 12:37:41;;;;;;;0.40;0.20;;;24.60;73.00;;;;;;5100460;28;20470;-86
2022/06/01 12:40:15;;;;;;;0.40;0.20;;;24.80;75.50;;;;;;5095611;28;20474;-87
2022/06/01 12:42:52;;;;;;;0.40;0.20;;;25.20;67.10;;;;;;5097407;28;20462;-87
2022/06/01 12:45:23;;;;;;;0.40;0.20;;;25.60;67.30;;;;;;5092734;28;20458;-88
2022/06/01 12:47:58;;;;;;;0.40;0.20;;;25.80;64.50;;;;;;5081558;28;20525;-88
2022/06/01 12:50:29;;;;;;;0.40;0.20;;;25.90;62.30;;;;;;5087207;28;20443;-88
2022/06/01 12:53:11;;;;;;;0.40;0.30;;;26.10;62.50;;;;;;5087290;28;20924;-88
2022/06/01 12:55:38;;;;;;;0.40;0.20;;;25.70;61.30;;;;;;5087013;28;20518;-89
2022/06/01 12:58:14;;;;;;;0.40;0.20;;;25.90;61.10;;;;;;5088444;28;20447;-88
2022/06/01 13:00:48;;;;;;;0.40;0.30;;;26.20;62.20;;;;;;5088810;28;21156;-88
2022/06/01 13:03:22;;;;;;;1.33;0.30;;;26.20;62.10;;;;;;5086242;28;20496;-88
2022/06/01 13:05:53;;;;;;;0.40;0.30;;;26.40;58.80;;;;;;5096988;28;20447;-88
2022/06/01 13:08:23;;;;;;;0.40;0.20;;;26.60;58.30;;;;;;5097729;28;20516;-88
2022/06/01 13:10:50;;;;;;;0.40;0.20;;;26.80;66.30;;;;;;5088868;28;20517;-88
2022/06/01 13:13:23;;;;;;;0.40;0.30;;;26.30;59.30;;;;;;5091900;28;20470;-88
2022/06/01 13:15:58;;;;;;;0.40;0.30;;;25.80;59.40;;;;;;5085867;28;20470;-89
2022/06/01 13:18:31;;;;;;;0.50;0.40;;;26.10;65.10;;;;;;5082565;28;20463;-88
2022/06/01 13:21:03;;;;;;;0.40;0.20;;;25.80;67.60;;;;;;5083735;28;20523;-88
2022/06/01 13:23:35;;;;;;;0.40;0.30;;;25.20;65.20;;;;;;5081055;28;20486;-88
2022/06/01 13:26:06;;;;;;;0.50;0.30;;;24.60;66.80;;;;;;5082327;28;20513;-87
2022/06/01 13:28:33;;;;;;;0.40;0.20;;;24.60;64.80;;;;;;5086749;28;20926;-88
2022/06/01 13:31:01;;;;;;;0.40;0.20;;;24.80;63.50;;;;;;5085912;28;20986;-87
2022/06/01 13:33:36;;;;;;;0.40;0.20;;;25.20;63.90;;;;;;5086765;28;20455;-87
2022/06/01 13:36:07;;;;;;;0.50;0.33;;;25.40;62.00;;;;;;5078713;28;20458;-88
2022/06/01 13:38:41;;;;;;;0.40;0.20;;;25.60;62.50;;;;;;5084570;28;20851;-85
2022/06/01 13:41:16;;;;;;;0.40;0.30;;;25.80;65.00;;;;;;5085392;28;20488;-84
2022/06/01 13:43:46;;;;;;;0.40;0.30;;;26.00;61.10;;;;;;5088824;28;20439;-84
2022/06/01 13:46:15;;;;;;;0.40;0.20;;;25.70;60.30;;;;;;5081461;28;20447;-84